createdAt,value
2023-04-23T00:03:11.253Z,9
2023-04-23T00:09:00.860Z,9
2023-04-23T00:14:11.154Z,10
2023-04-23T00:19:11.160Z,13
2023-04-23T00:25:00.855Z,10
2023-04-23T00:30:11.156Z,9
2023-04-23T00:35:11.165Z,9
2023-04-23T00:41:00.862Z,10
2023-04-23T00:46:11.222Z,9
2023-04-23T00:52:00.858Z,8
2023-04-23T00:57:00.853Z,9
2023-04-23T01:02:00.881Z,10
2023-04-23T01:07:00.862Z,11
2023-04-23T01:12:11.145Z,11
2023-04-23T01:18:00.896Z,11
2023-04-23T01:23:00.937Z,11
2023-04-23T01:28:11.162Z,9
2023-04-23T01:34:00.872Z,11
2023-04-23T01:39:00.875Z,9
2023-04-23T01:44:11.153Z,10
2023-04-23T01:49:11.145Z,11
2023-04-23T01:55:00.868Z,13
2023-04-23T02:00:00.889Z,9
2023-04-23T02:05:11.140Z,9
2023-04-23T02:10:11.223Z,9
2023-04-23T02:16:00.903Z,10
2023-04-23T02:21:00.897Z,9
2023-04-23T02:26:00.912Z,11
2023-04-23T02:31:11.189Z,10
2023-04-23T02:36:11.170Z,10
2023-04-23T02:42:11.151Z,9
2023-04-23T02:47:11.227Z,9
2023-04-23T02:53:00.895Z,9
2023-04-23T02:58:11.165Z,10
2023-04-23T03:03:12.626Z,11
2023-04-23T03:09:00.889Z,10
2023-04-23T03:14:11.161Z,12
2023-04-23T03:19:11.183Z,12
2023-04-23T03:25:00.943Z,10
2023-04-23T03:30:11.161Z,10
2023-04-23T03:35:11.198Z,6
2023-04-23T03:41:00.891Z,7
2023-04-23T03:46:11.231Z,8
2023-04-23T03:52:00.889Z,8
2023-04-23T03:57:00.895Z,7
2023-04-23T04:02:00.896Z,8
2023-04-23T04:07:00.935Z,7
2023-04-23T04:12:11.162Z,7
2023-04-23T04:17:11.188Z,9
2023-04-23T04:23:01.028Z,11
2023-04-23T04:29:00.912Z,7
2023-04-23T04:34:11.235Z,8
2023-04-23T04:40:00.917Z,8
2023-04-23T04:45:11.185Z,10
2023-04-23T04:51:00.905Z,9
2023-04-23T04:56:00.909Z,10
2023-04-23T05:07:00.890Z,7
2023-04-23T05:12:00.916Z,8
2023-04-23T05:17:11.178Z,7
2023-04-23T05:22:11.188Z,7
2023-04-23T05:28:00.890Z,7
2023-04-23T05:33:00.965Z,8
2023-04-23T05:38:11.239Z,9
2023-04-23T05:44:00.891Z,9
2023-04-23T05:49:00.882Z,8
2023-04-23T05:54:00.894Z,11
2023-04-23T05:59:00.888Z,8
2023-04-23T06:04:01.149Z,13
2023-04-23T06:09:00.909Z,9
2023-04-23T06:14:11.160Z,11
2023-04-23T06:19:11.243Z,9
2023-04-23T06:25:00.881Z,8
2023-04-23T06:30:00.912Z,10
2023-04-23T06:35:11.168Z,8
2023-04-23T06:40:11.241Z,9
2023-04-23T06:45:11.194Z,8
2023-04-23T06:51:00.942Z,10
2023-04-23T06:56:11.167Z,13
2023-04-23T07:01:11.205Z,9
2023-04-23T07:07:00.901Z,9
2023-04-23T07:12:11.199Z,10
2023-04-23T07:18:01.066Z,12
2023-04-23T07:23:00.954Z,9
2023-04-23T07:28:00.972Z,11
2023-04-23T07:33:11.193Z,10
2023-04-23T07:38:11.211Z,9
2023-04-23T07:43:11.201Z,14
2023-04-23T07:48:11.218Z,12
2023-04-23T07:54:00.930Z,12
2023-04-23T07:59:00.940Z,9
2023-04-23T08:04:11.423Z,14
2023-04-23T08:09:11.245Z,13
2023-04-23T08:15:00.919Z,9
2023-04-23T08:20:11.217Z,12
2023-04-23T08:25:11.211Z,13
2023-04-23T08:30:11.219Z,9
2023-04-23T08:36:00.944Z,14
2023-04-23T08:41:00.962Z,12
2023-04-23T08:46:11.220Z,12
2023-04-23T08:51:11.227Z,11
2023-04-23T08:56:11.224Z,11
2023-04-23T09:02:01.156Z,10
2023-04-23T09:07:11.258Z,15
2023-04-23T09:12:11.255Z,11
2023-04-23T09:18:01.048Z,9
2023-04-23T09:23:00.963Z,9
2023-04-23T09:28:11.243Z,14
2023-04-23T09:33:11.234Z,12
2023-04-23T09:39:00.972Z,21
2023-04-23T09:44:11.250Z,12
2023-04-23T09:50:00.960Z,17
2023-04-23T09:55:00.969Z,14
2023-04-23T10:00:14.332Z,19
2023-04-23T10:06:02.340Z,23
2023-04-23T10:11:20.325Z,35
2023-04-23T10:17:01.029Z,43
2023-04-23T10:22:15.933Z,29
2023-04-23T10:27:24.824Z,28
2023-04-23T10:32:11.256Z,37
2023-04-23T10:37:11.256Z,35
2023-04-23T10:43:00.977Z,29
2023-04-23T10:48:11.266Z,27
2023-04-23T10:53:11.264Z,36
2023-04-23T10:58:11.308Z,34
2023-04-23T11:04:01.130Z,39
2023-04-23T11:09:11.258Z,29
2023-04-23T11:15:01.041Z,39
2023-04-23T11:20:00.985Z,30
2023-04-23T11:25:11.258Z,30
2023-04-23T11:31:00.988Z,27
2023-04-23T11:36:11.273Z,35
2023-04-23T11:41:11.273Z,28
2023-04-23T11:47:00.986Z,31
2023-04-23T11:52:01.007Z,30
2023-04-23T11:57:11.263Z,38
2023-04-23T12:02:11.324Z,30
2023-04-23T12:07:25.360Z,27
2023-04-23T12:13:00.995Z,34
2023-04-23T12:18:01.009Z,28
2023-04-23T12:23:11.262Z,25
2023-04-23T12:28:11.287Z,40
2023-04-23T12:33:11.298Z,30
2023-04-23T12:39:01.097Z,29
2023-04-23T12:44:11.285Z,27
2023-04-23T12:49:11.294Z,21
2023-04-23T12:55:01.021Z,22
2023-04-23T13:00:01.095Z,23
2023-04-23T13:05:11.300Z,22
2023-04-23T13:10:11.316Z,29
2023-04-23T13:21:11.301Z,12
2023-04-23T13:27:01.039Z,22
2023-04-23T13:32:11.317Z,10
2023-04-23T13:37:11.306Z,8
2023-04-23T13:43:01.013Z,8
2023-04-23T13:48:01.081Z,10
2023-04-23T13:53:05.772Z,7
2023-04-23T13:58:12.406Z,6
2023-04-23T14:04:01.126Z,11
2023-04-23T14:09:01.035Z,10
2023-04-23T14:14:01.037Z,8
2023-04-23T14:19:01.037Z,10
2023-04-23T14:24:01.053Z,11
2023-04-23T14:29:11.338Z,14
2023-04-23T14:34:11.308Z,11
2023-04-23T14:39:11.318Z,14
2023-04-23T14:44:11.337Z,8
2023-04-23T14:50:01.058Z,11
2023-04-23T14:55:01.038Z,8
2023-04-23T15:00:01.069Z,10
2023-04-23T15:05:11.330Z,9
2023-04-23T15:11:01.052Z,9
2023-04-23T15:16:11.368Z,8
2023-04-23T15:22:01.053Z,9
2023-04-23T15:27:11.329Z,10
2023-04-23T15:32:11.392Z,8
2023-04-23T15:38:01.069Z,8
2023-04-23T15:43:11.340Z,9
2023-04-23T15:48:11.337Z,10
2023-04-23T15:53:11.346Z,10
2023-04-23T15:58:11.362Z,12
2023-04-23T16:04:10.308Z,13
2023-04-23T16:09:11.563Z,11
2023-04-23T16:14:11.552Z,11
2023-04-23T16:20:01.064Z,12
2023-04-23T16:25:01.069Z,10
2023-04-23T16:30:11.357Z,12
2023-04-23T16:36:01.059Z,9
2023-04-23T16:41:11.334Z,12
2023-04-23T16:47:01.254Z,13
2023-04-23T16:52:11.348Z,11
2023-04-23T16:57:11.355Z,12
2023-04-23T17:02:11.605Z,12
2023-04-23T17:08:01.077Z,10
2023-04-23T17:13:01.076Z,10
2023-04-23T17:18:01.116Z,10
2023-04-23T17:23:11.349Z,9
2023-04-23T17:29:01.068Z,12
2023-04-23T17:34:01.087Z,14
2023-04-23T17:39:01.107Z,10
2023-04-23T17:45:01.107Z,8
2023-04-23T17:50:11.378Z,10
2023-04-23T17:55:11.368Z,10
2023-04-23T18:00:11.385Z,11
2023-04-23T18:06:01.085Z,11
2023-04-23T18:11:11.363Z,12
2023-04-23T18:17:01.119Z,12
2023-04-23T18:22:01.089Z,10
2023-04-23T18:27:01.100Z,10
2023-04-23T18:33:01.152Z,10
2023-04-23T18:38:11.356Z,10
2023-04-23T18:43:11.374Z,13
2023-04-23T18:49:01.085Z,12
2023-04-23T18:54:01.090Z,11
2023-04-23T18:59:11.374Z,10
2023-04-23T19:05:01.121Z,12
2023-04-23T19:10:01.083Z,9
2023-04-23T19:15:01.113Z,12
2023-04-23T19:20:11.381Z,10
2023-04-23T19:25:11.362Z,12
2023-04-23T19:30:11.363Z,11
2023-04-23T19:36:01.101Z,11
2023-04-23T19:41:01.133Z,11
2023-04-23T19:46:11.404Z,12
2023-04-23T19:52:01.077Z,12
2023-04-23T19:57:01.112Z,11
2023-04-23T20:02:11.391Z,12
2023-04-23T20:08:01.092Z,14
2023-04-23T20:13:01.083Z,15
2023-04-23T20:18:11.389Z,11
2023-04-23T20:23:11.399Z,13
2023-04-23T20:28:11.393Z,9
2023-04-23T20:34:01.081Z,9
2023-04-23T20:39:01.116Z,10
2023-04-23T20:44:01.123Z,13
2023-04-23T20:49:11.376Z,11
2023-04-23T20:55:01.098Z,8
2023-04-23T21:00:01.147Z,10
2023-04-23T21:05:11.397Z,8
2023-04-23T21:10:11.399Z,9
2023-04-23T21:21:01.101Z,7
2023-04-23T21:26:01.114Z,8
2023-04-23T21:31:01.189Z,14
2023-04-23T21:36:11.375Z,8
2023-04-23T21:41:11.383Z,7
2023-04-23T21:47:01.270Z,11
2023-04-23T21:52:11.387Z,8
2023-04-23T21:58:13.900Z,9
2023-04-23T22:03:11.530Z,8
2023-04-23T22:08:11.439Z,7
2023-04-23T22:14:05.769Z,7
2023-04-23T22:19:11.395Z,7
2023-04-23T22:24:11.461Z,10
2023-04-23T22:30:01.126Z,7
2023-04-23T22:35:11.543Z,7
2023-04-23T22:41:01.129Z,9
2023-04-23T22:46:11.420Z,13
2023-04-23T22:51:11.409Z,9
2023-04-23T22:57:01.130Z,8
2023-04-23T23:02:11.406Z,10
2023-04-23T23:08:01.130Z,7
2023-04-23T23:13:01.135Z,9
2023-04-23T23:18:11.455Z,9
2023-04-23T23:24:01.144Z,8
2023-04-23T23:29:01.183Z,9
2023-04-23T23:34:11.408Z,10
2023-04-23T23:40:01.132Z,7
2023-04-23T23:45:11.411Z,7
2023-04-23T23:51:01.106Z,8
2023-04-23T23:56:01.125Z,9
